Site contains unofficial IBTrACS data. Visit the IBTrACS Website to access archived data.

1998 Severe Tropical Cyclone CINDY:VICTOR (1998036S13135)


IBTrACS version v04r00. Visit IBTrACS website for data access.
Please direct all questions to the IBTrACS Q and A forum

Storm track - Intensity - Wind Radii - Intensity Data - Source Data - All data

Summary Information

Satellite image near maximum intensity
Storm ID 1998036S13135
Start Feb 4 18Z
Max Intensity 90 kt (Feb 13 00Z), 970 mb (Feb 12 09Z)
End Feb 18 18Z
ATCF IDs SH221998
Track status Best track data.

Storm track plot

Map of storm track

Intensity plots

Map of storm track

Radial wind information

Map of storm track

Position and Intensity Table

BASIN ISO_TIME_________ NATURE LAT LON WMO WIND WMO PRES USA WIND BOM WIND BOM PRES NEUMANN WIND NEUMANN PRES
degrees north degrees east kts mb kts kts mb kts mb
SP 1998-02-04 18:00:00 NR -13.10 135.20 15
SI 21:00:00 NR -13.10 134.69 15
SI 1998-02-05 00:00:00 NR -13.10 134.20 15
SI 03:00:00 NR -13.10 133.74 15
SI 04:00:00 NR -13.06 133.60 15 1007 15 15 1007
SI 06:00:00 NR -13.03 133.31 15
SI 09:00:00 NR -13.02 132.88 15
SI 12:00:00 NR -13.01 132.47 15
SI 15:00:00 NR -13.01 132.10 17
SI 18:00:00 NR -13.02 131.74 20
SI 21:00:00 NR -13.02 131.38 20
SI 1998-02-06 00:00:00 NR -13.03 131.03 20
SI 03:00:00 NR -13.06 130.68 20
SI 04:00:00 NR -13.08 130.57 15 1007 20 15 1007
SI 06:00:00 NR -13.11 130.34 20
SI 09:00:00 NR -13.18 130.01 22
SI 12:00:00 NR -13.25 129.69 25
SI 15:00:00 NR -13.32 129.38 25
SI 18:00:00 NR -13.39 129.10 25
SI 21:00:00 NR -13.43 128.83 25
SI 1998-02-07 00:00:00 NR -13.48 128.58 25
SI 03:00:00 NR -13.57 128.37 25
SI 04:00:00 NR -13.60 128.30 20 1007 25 20 1007
SI 06:00:00 NR -13.64 128.17 25
SI 09:00:00 NR -13.65 127.93 25
SI 12:00:00 NR -13.64 127.67 25
SI 15:00:00 NR -13.62 127.44 25
SI 18:00:00 NR -13.60 127.17 25
SI 21:00:00 NR -13.60 126.84 25
SI 1998-02-08 00:00:00 NR -13.63 126.48 25
SI 03:00:00 NR -13.70 126.12 27
SI 04:00:00 NR -13.73 126.01 20 1008 28 20 1008
SI 06:00:00 TS -13.75 125.81 30 20 1007 15 1008
SI 09:00:00 TS -13.83 125.49 30 20 1007 15 1007
SI 10:00:00 TS -13.84 125.39 20 1007 30 20 1007 15 1007
SI 12:00:00 TS -13.92 125.18 30 20 1007 15 1007
SI 15:00:00 TS -14.11 124.83 30 20 1007 15 1007
SI 16:00:00 TS -14.17 124.71 20 1007 30 20 1007 15 1007
SI 18:00:00 TS -14.28 124.48 30 20 1007 15 1007
SI 21:00:00 TS -14.39 124.12 30 20 1007 15 1007
SI 22:00:00 TS -14.42 124.00 20 1007 30 20 1007 15 1007
SI 1998-02-09 00:00:00 TS -14.48 123.75 30 20 1006 15 1007
SI 03:00:00 TS -14.58 123.38 30 20 1005 17 1006
SI 04:00:00 TS -14.61 123.25 20 1005 30 20 1005 18 1005
SI 06:00:00 TS -14.69 122.99 30 20 1005 20 1005
SI 09:00:00 TS -14.81 122.60 30 20 1005 20 1005
SI 10:00:00 TS -14.85 122.48 20 1005 30 20 1005 20 1005
SI 12:00:00 TS -14.91 122.22 30 20 1005 20 1005
SI 15:00:00 TS -14.99 121.86 30 20 1005 20 1005
SI 16:00:00 TS -15.02 121.73 20 1005 30 20 1005 20 1005
SI 18:00:00 TS -15.09 121.49 30 21 1005 20 1005
SI 21:00:00 TS -15.21 121.11 32 24 1005 20 1005
SI 22:00:00 TS -15.25 120.98 25 1005 33 25 1005 20 1005
SI 1998-02-10 00:00:00 TS -15.31 120.72 35 25 1004 20 1005
SI 03:00:00 TS -15.35 120.30 37 25 1003 22 1004
SI 04:00:00 TS -15.36 120.16 25 1003 38 25 1003 23 1003
SI 06:00:00 TS -15.39 119.88 40 28 1002 25 1003
SI 09:00:00 TS -15.46 119.49 42 33 1002 25 1002
SI 10:00:00 TS -15.48 119.36 35 1002 43 35 1002 25 1002
SI 12:00:00 TS -15.51 119.11 45 35 1001 25 1002
SI 15:00:00 TS -15.49 118.75 45 35 1000 27 1001
SI 16:00:00 TS -15.48 118.63 35 1000 45 35 1000 28 1000
SI 18:00:00 TS -15.47 118.36 45 35 1000 30 1000
SI 21:00:00 TS -15.45 117.92 47 35 1000 30 1000
SI 22:00:00 TS -15.45 117.76 35 1000 48 35 1000 30 1000
SI 1998-02-11 00:00:00 TS -15.43 117.47 50 35 1000 30 1000
SI 03:00:00 TS -15.40 117.03 50 35 1000 30 1000
SI 04:00:00 TS -15.39 116.88 35 1000 50 35 1000 30 1000
SI 06:00:00 TS -15.37 116.56 50 36 998 30 1000
SI 09:00:00 TS -15.32 116.04 50 39 995 35 997
SI 10:00:00 TS -15.30 115.85 40 995 50 40 995 36 996
SI 12:00:00 TS -15.25 115.48 50 40 993 40 995
SI 15:00:00 TS -15.16 114.91 50 40 990 42 992
SI 16:00:00 TS -15.13 114.72 40 990 50 40 990 43 991
SI 18:00:00 TS -15.07 114.35 50 44 986 45 990
SI 21:00:00 TS -14.99 113.85 52 52 981 52 985
SI 22:00:00 TS -14.97 113.68 55 980 53 55 980 55 983
SI 1998-02-12 00:00:00 TS -14.97 113.35 55 56 978 60 980
SI 03:00:00 TS -15.01 112.85 57 59 975 65 977
SI 04:00:00 TS -15.04 112.68 60 975 58 60 975 66 976
SI 06:00:00 TS -15.12 112.37 60 63 973 70 975
SI 09:00:00 TS -15.28 111.92 65 68 970 72 972
SI 10:00:00 TS -15.36 111.77 70 970 66 70 970 73 971
SI 12:00:00 TS -15.53 111.45 70 73 970 75 970
SI 15:00:00 TS -15.84 110.92 75 78 970 75 970
SI 16:00:00 TS -15.95 110.73 80 970 76 80 970 75 970
SI 18:00:00 TS -16.16 110.33 80 81 971 75 970
SI 21:00:00 TS -16.41 109.68 85 84 974 72 972
SI 22:00:00 TS -16.49 109.46 85 975 86 85 975 71 973
SI 1998-02-13 00:00:00 TS -16.67 109.03 90 81 976 70 975
SI 03:00:00 TS -16.96 108.42 90 76 979 65 977
SI 04:00:00 TS -17.05 108.21 75 980 90 75 980 63 978
SI 06:00:00 TS -17.22 107.79 90 70 980 60 980
SI 09:00:00 TS -17.41 107.15 90 62 980 60 980
SI 10:00:00 TS -17.47 106.93 60 980 90 60 980 60 980
SI 12:00:00 TS -17.57 106.48 90 58 980 60 980
SI 15:00:00 TS -17.71 105.78 87 55 980 60 980
SI 16:00:00 TS -17.75 105.55 55 980 86 55 980 60 980
SI 18:00:00 TS -17.83 105.08 85 53 981 60 980
SI 21:00:00 TS -17.96 104.41 77 50 984 57 982
SI 22:00:00 TS -18.01 104.18 50 985 74 50 985 56 983
SI 1998-02-14 00:00:00 TS -18.11 103.70 70 50 985 55 985
SI 03:00:00 TS -18.26 102.90 65 50 985 55 985
SI 04:00:00 TS -18.31 102.62 50 985 63 50 985 55 985
SI 06:00:00 TS -18.39 102.04 60 46 986 55 985
SI 09:00:00 TS -18.51 101.14 57 41 989 50 987
SI 10:00:00 TS -18.56 100.84 40 990 56 40 990 48 988
SI 12:00:00 TS -18.66 100.23 55 38 991 45 990
SI 15:00:00 TS -18.83 99.32 55 35 994 42 992
SI 16:00:00 TS -18.90 99.01 35 995 55 35 995 41 993
SI 18:00:00 TS -19.05 98.40 55 31 996 40 995
SI 21:00:00 TS -19.33 97.48 50 26 999 35 997
SI 22:00:00 TS -19.42 97.18 25 1000 48 25 1000 33 998
SI 1998-02-15 00:00:00 TS -19.57 96.58 45 23 1001 30 1000
SI 03:00:00 TS -19.72 95.68 42 20 1004 25 1002
SI 04:00:00 TS -19.77 95.39 20 1005 41 20 1005 23 1003
SI 06:00:00 TS -19.87 94.80 40 20 1005 20 1005
SI 09:00:00 TS -20.06 93.95 40 20 1005 20 1005
SI 10:00:00 TS -20.14 93.68 20 1005 40 20 1005 20 1005
SI 12:00:00 TS -20.29 93.16 40 20 1006 20 1005
SI 15:00:00 TS -20.54 92.40 40 20 1009 17 1007
SI 16:00:00 TS -20.63 92.16 20 1010 40 20 1010 16 1008
SI 18:00:00 TS -20.78 91.67 40 20 1010 15 1010
SI 21:00:00 TS -20.95 90.96 40 20 1010 15 1010
SI 22:00:00 TS -21.00 90.72 20 1010 40 20 1010 15 1010
SI 1998-02-16 00:00:00 TS -21.13 90.26 40 20 1010 15 1010
SI 03:00:00 TS -21.36 89.57 37 20 1010 15 1010
SI 04:00:00 TS -21.42 89.33 36 20 1010 15 1010
SI 06:00:00 TS -21.52 88.83 35 20 1010 15 1010
SI 09:00:00 TS -21.57 88.05 35 20 1010 15 1010
SI 10:00:00 TS -21.57 87.77 35 20 1010 15 1010
SI 12:00:00 TS -21.55 87.21 35 20 1010 15 1010
SI 15:00:00 TS -21.48 86.31 35 20 1010 15 1010
SI 16:00:00 TS -21.46 86.00 35 20 1010 15 1010
SI 18:00:00 TS -21.42 85.40 35 20 1010 15 1010
SI 21:00:00 TS -21.38 84.52 35 20 1010 15 1010
SI 22:00:00 TS -21.37 84.22 35 20 1010 15 1010
SI 1998-02-17 00:00:00 TS -21.36 83.64 35 20 1010 15 1010
SI 03:00:00 TS -21.37 82.70 35 20 1010 15 1010
SI 04:00:00 TS -21.43 82.36 35 20 1010 15 1010
SI 06:00:00 TS -21.58 81.72 35 15 1010
SI 09:00:00 NR -21.73 80.76 35
SI 12:00:00 NR -21.80 79.90 35
SI 15:00:00 NR -21.96 78.99 35
SI 18:00:00 NR -22.20 78.10 35
SI 21:00:00 NR -22.45 77.28 35
SI 1998-02-18 00:00:00 NR -22.80 76.60 35
SI 03:00:00 NR -23.23 76.10 35
SI 06:00:00 NR -23.80 75.70 35
SI 09:00:00 NR -24.49 75.26 35
SI 12:00:00 NR -25.30 74.90 35
SI 15:00:00 NR -26.18 74.66 32
SI 18:00:00 NR -27.10 74.50 30

Source Information

Agency Information
USA bsh221998.txt
TOKYO
CMA
HKO
NEWDELHI
REUNION
BOM IDCKMSTM0S.csv:Line=19738:VICTOR
NADI
WELLINGTON
DS824
TD9636
TD9635
NEUMANN tracks.sh:Storm=1124:VICTOR/CINDY:BSH221998:BM867
MLC

All available IBTrACS Data

SEASON BASIN SUBBASIN ISO_TIME_________ NATURE LAT LON WMO WIND WMO PRES WMO AGENCY DIST2LAND LANDFALL IFLAG USA AGENCY USA ATCF_ID USA LAT USA LON USA WIND USA SSHS BOM LAT BOM LON BOM TYPE BOM WIND BOM PRES BOM CI BOM ROCI BOM POCI NEUMANN LAT NEUMANN LON NEUMANN CLASS NEUMANN WIND NEUMANN PRES STORM SPEED STORM DIR
Year degrees north degrees east kts mb km km degrees north degrees east kts 1 degrees north degrees east kts mb 1 nmile mb degrees north degrees east kts mb kts degrees
1998 SP EA 1998-02-04 18:00:00 NR -13.10 135.20 0 0 O_____________ jtwc_sh SH221998 -13.10 135.20 15 -1 10 270
1998 SI WA 21:00:00 NR -13.10 134.69 0 0 P_____________ SH221998 -13.10 134.69 15 -1 10 270
1998 SI WA 1998-02-05 00:00:00 NR -13.10 134.20 0 0 O_____________ jtwc_sh SH221998 -13.10 134.20 15 -1 9 270
1998 SI WA 03:00:00 NR -13.10 133.74 0 0 P_____________ SH221998 -13.10 133.74 15 -1 9 274
1998 SI WA 04:00:00 NR -13.06 133.60 15 1007 bom 0 0 P_____O_______ SH221998 -13.10 133.59 15 -1 -12.90 133.60 20 15 1007 1012 9 279
1998 SI WA 06:00:00 NR -13.03 133.31 0 0 O_____P_______ jtwc_sh SH221998 -13.10 133.30 15 -1 -12.90 133.34 20 8 273
1998 SI WA 09:00:00 NR -13.02 132.88 0 0 P_____P_______ SH221998 -13.10 132.84 15 -1 -12.91 132.94 20 8 272
1998 SI WA 12:00:00 NR -13.01 132.47 0 0 O_____P_______ jtwc_sh SH221998 -13.10 132.40 15 -1 -12.91 132.55 20 8 271
1998 SI WA 15:00:00 NR -13.01 132.10 0 0 P_____P_______ SH221998 -13.10 132.04 17 -1 -12.92 132.16 20 7 269
1998 SI WA 18:00:00 NR -13.02 131.74 0 0 O_____P_______ jtwc_sh SH221998 -13.10 131.70 20 -1 -12.93 131.78 20 7 269
1998 SI WA 21:00:00 NR -13.02 131.38 0 0 P_____P_______ SH221998 -13.09 131.35 20 -1 -12.95 131.41 20 7 269
1998 SI WA 1998-02-06 00:00:00 NR -13.03 131.03 0 0 O_____P_______ jtwc_sh SH221998 -13.10 131.00 20 -1 -12.97 131.05 20 7 266
1998 SI WA 03:00:00 NR -13.06 130.68 0 0 P_____P_______ SH221998 -13.13 130.65 20 -1 -12.99 130.71 20 7 264
1998 SI WA 04:00:00 NR -13.08 130.57 15 1007 bom 0 0 P_____O_______ SH221998 -13.15 130.53 20 -1 -13.00 130.60 20 15 1007 1012 7 262
1998 SI WA 06:00:00 NR -13.11 130.34 0 0 O_____P_______ jtwc_sh SH221998 -13.20 130.30 20 -1 -13.02 130.38 20 7 260
1998 SI WA 09:00:00 NR -13.18 130.01 10 10 P_____P_______ SH221998 -13.29 129.94 22 -1 -13.06 130.07 20 7 258
1998 SI WA 12:00:00 NR -13.25 129.69 35 24 O_____P_______ jtwc_sh SH221998 -13.40 129.60 25 -1 -13.10 129.77 20 6 256
1998 SI WA 15:00:00 NR -13.32 129.38 48 48 P_____P_______ SH221998 -13.51 129.29 25 -1 -13.14 129.48 20 6 256
1998 SI WA 18:00:00 NR -13.39 129.10 76 76 O_____P_______ jtwc_sh SH221998 -13.60 129.00 25 -1 -13.18 129.20 20 6 259
1998 SI WA 21:00:00 NR -13.43 128.83 108 108 P_____P_______ SH221998 -13.64 128.73 25 -1 -13.22 128.93 20 5 260
1998 SI WA 1998-02-07 00:00:00 NR -13.48 128.58 124 101 O_____P_______ jtwc_sh SH221998 -13.70 128.50 25 -1 -13.26 128.66 20 5 253
1998 SI WA 03:00:00 NR -13.57 128.37 101 93 P_____P_______ SH221998 -13.85 128.35 25 -1 -13.29 128.39 20 4 245
1998 SI WA 04:00:00 NR -13.60 128.30 20 1007 bom 93 86 P_____O_______ SH221998 -13.90 128.30 25 -1 -13.30 128.30 20 20 1007 1012 4 251
1998 SI WA 06:00:00 NR -13.64 128.17 86 59 O_____P_______ jtwc_sh SH221998 -14.00 128.20 25 -1 -13.28 128.13 20 4 263
1998 SI WA 09:00:00 NR -13.65 127.93 59 55 P_____P_______ SH221998 -14.07 127.96 25 -1 -13.23 127.89 20 5 270
1998 SI WA 12:00:00 NR -13.64 127.67 55 46 O_____P_______ jtwc_sh SH221998 -14.10 127.70 25 -1 -13.18 127.65 20 5 274
1998 SI WA 15:00:00 NR -13.62 127.44 39 24 P_____P_______ SH221998 -14.11 127.47 25 -1 -13.13 127.40 20 5 274
1998 SI WA 18:00:00 NR -13.60 127.17 24 22 O_____P_______ jtwc_sh SH221998 -14.10 127.20 25 -1 -13.10 127.14 20 6 272
1998 SI WA 21:00:00 NR -13.60 126.84 24 24 P_____P_______ SH221998 -14.09 126.81 25 -1 -13.11 126.86 20 7 268
1998 SI WA 1998-02-08 00:00:00 NR -13.63 126.48 44 33 O_____P_______ jtwc_sh SH221998 -14.10 126.40 25 -1 -13.15 126.56 20 7 262
1998 SI WA 03:00:00 NR -13.70 126.12 33 33 P_____P_______ SH221998 -14.15 126.03 27 -1 -13.25 126.22 20 7 257
1998 SI WA 04:00:00 NR -13.73 126.01 20 1008 bom 35 35 P_____O_______ SH221998 -14.17 125.91 28 -1 -13.30 126.10 20 20 1008 1.00 106 1012 6 261
1998 SI WA 06:00:00 TS -13.75 125.81 39 39 O_____P_____O_ jtwc_sh SH221998 -14.20 125.70 30 -1 -13.41 125.84 20 20 1007 106 1012 -13.30 126.10 TC 15 1008 6 260
1998 SI WA 09:00:00 TS -13.83 125.49 57 57 P_____P_____P_ SH221998 -14.20 125.43 30 -1 -13.62 125.44 20 20 1007 106 1012 -13.49 125.70 TC 15 1007 6 257
1998 SI WA 10:00:00 TS -13.84 125.39 20 1007 bom 59 55 P_____O_____P_ SH221998 -14.20 125.36 30 -1 -13.70 125.30 20 20 1007 1.00 106 1012 -13.55 125.57 TC 15 1007 6 252
1998 SI WA 12:00:00 TS -13.92 125.18 62 62 O_____P_____O_ jtwc_sh SH221998 -14.20 125.20 30 -1 -13.87 125.03 20 20 1007 106 1012 -13.70 125.30 TC 15 1007 7 244
1998 SI WA 15:00:00 TS -14.11 124.83 70 70 P_____P_____P_ SH221998 -14.24 124.96 30 -1 -14.13 124.63 20 20 1007 106 1012 -13.96 124.90 TC 15 1007 8 241
1998 SI WA 16:00:00 TS -14.17 124.71 20 1007 bom 70 70 P_____O_____P_ SH221998 -14.26 124.87 30 -1 -14.20 124.50 20 20 1007 1.00 106 1012 -14.04 124.77 TC 15 1007 8 244
1998 SI WA 18:00:00 TS -14.28 124.48 82 82 O_____P_____O_ jtwc_sh SH221998 -14.30 124.70 30 -1 -14.33 124.23 20 20 1007 106 1012 -14.20 124.50 TC 15 1007 7 249
1998 SI WA 21:00:00 TS -14.39 124.12 116 116 P_____P_____P_ SH221998 -14.33 124.43 30 -1 -14.47 123.83 20 20 1007 106 1012 -14.38 124.09 TC 15 1007 7 252
1998 SI WA 22:00:00 TS -14.42 124.00 20 1007 bom 124 124 P_____O_____P_ SH221998 -14.34 124.33 30 -1 -14.50 123.70 20 20 1007 1.00 106 1012 -14.43 123.96 TC 15 1007 7 256
1998 SI WA 1998-02-09 00:00:00 TS -14.48 123.75 133 133 O_____P_____O_ jtwc_sh SH221998 -14.40 124.10 30 -1 -14.54 123.46 20 20 1006 106 1012 -14.50 123.70 TC 15 1007 7 256
1998 SI WA 03:00:00 TS -14.58 123.38 155 155 P_____P_____P_ SH221998 -14.59 123.67 30 -1 -14.58 123.11 20 20 1005 106 1012 -14.56 123.34 TC 17 1006 8 255
1998 SI WA 04:00:00 TS -14.61 123.25 20 1005 bom 170 170 P_____O_____P_ SH221998 -14.66 123.52 30 -1 -14.60 123.00 20 20 1005 1.00 106 1012 -14.57 123.23 TC 18 1005 8 253
1998 SI WA 06:00:00 TS -14.69 122.99 180 180 O_____P_____O_ jtwc_sh SH221998 -14.80 123.20 30 -1 -14.66 122.77 20 20 1005 114 1012 -14.60 123.00 TC 20 1005 8 252
1998 SI WA 09:00:00 TS -14.81 122.60 192 192 P_____P_____P_ SH221998 -14.96 122.74 30 -1 -14.77 122.42 20 20 1005 128 1012 -14.70 122.65 TC 20 1005 8 252
1998 SI WA 10:00:00 TS -14.85 122.48 20 1005 bom 195 184 P_____O_____P_ SH221998 -15.01 122.59 30 -1 -14.80 122.30 20 20 1005 1.00 133 1012 -14.74 122.53 TC 20 1005 8 254
1998 SI WA 12:00:00 TS -14.91 122.22 194 193 O_____P_____O_ jtwc_sh SH221998 -15.10 122.30 30 -1 -14.84 122.07 20 20 1005 141 1012 -14.80 122.30 TC 20 1005 7 256
1998 SI WA 15:00:00 TS -14.99 121.86 199 199 P_____P_____P_ SH221998 -15.25 121.90 30 -1 -14.88 121.72 20 20 1005 155 1012 -14.85 121.95 TC 20 1005 7 257
1998 SI WA 16:00:00 TS -15.02 121.73 20 1005 bom 211 209 P_____O_____P_ SH221998 -15.30 121.77 30 -1 -14.90 121.60 20 20 1005 1.00 160 1012 -14.86 121.83 TC 20 1005 7 255
1998 SI WA 18:00:00 TS -15.09 121.49 216 216 O_____P_____O_ jtwc_sh SH221998 -15.40 121.50 30 -1 -14.96 121.37 20 21 1005 168 1012 -14.90 121.60 TC 20 1005 8 252
1998 SI WA 21:00:00 TS -15.21 121.11 239 239 P_____P_____P_ SH221998 -15.57 121.07 32 -1 -15.07 121.02 20 24 1005 182 1012 -15.00 121.25 TC 20 1005 8 251
1998 SI WA 22:00:00 TS -15.25 120.98 25 1005 bom 239 239 P_____O_____P_ SH221998 -15.62 120.92 33 -1 -15.10 120.90 20 25 1005 1.50 187 1012 -15.04 121.13 TC 20 1005 8 255
1998 SI WA 1998-02-10 00:00:00 TS -15.31 120.72 262 262 O_____P_____O_ jtwc_sh SH221998 -15.70 120.60 35 0 -15.14 120.67 20 25 1004 195 1012 -15.10 120.90 TC 20 1005 8 262
1998 SI WA 03:00:00 TS -15.35 120.30 286 286 P_____P_____P_ SH221998 -15.72 120.03 37 0 -15.18 120.32 20 25 1003 209 1012 -15.15 120.56 TC 22 1004 8 265
1998 SI WA 04:00:00 TS -15.36 120.16 25 1003 bom 294 302 P_____O_____P_ SH221998 -15.72 119.85 38 0 -15.20 120.20 20 25 1003 2.00 214 1012 -15.16 120.44 TC 23 1003 8 265
1998 SI WA 06:00:00 TS -15.39 119.88 319 319 O_____P_____O_ jtwc_sh SH221998 -15.70 119.50 40 0 -15.27 119.94 20 28 1002 214 1012 -15.20 120.20 TC 25 1003 8 261
1998 SI WA 09:00:00 TS -15.46 119.49 348 348 P_____P_____P_ SH221998 -15.71 119.11 42 0 -15.38 119.54 20 33 1002 214 1012 -15.31 119.81 TC 25 1002 8 259
1998 SI WA 10:00:00 TS -15.48 119.36 35 1002 bom 357 366 P_____O_____P_ SH221998 -15.71 119.00 43 0 -15.40 119.40 30 35 1002 2.50 214 1012 -15.34 119.67 TC 25 1002 7 263
1998 SI WA 12:00:00 TS -15.51 119.11 385 385 O_____P_____O_ jtwc_sh SH221998 -15.70 118.80 45 0 -15.42 119.14 30 35 1001 214 1012 -15.40 119.40 TC 25 1002 7 269
1998 SI WA 15:00:00 TS -15.49 118.75 414 414 P_____P_____P_ SH221998 -15.66 118.50 45 0 -15.41 118.74 30 35 1000 214 1012 -15.41 119.01 TC 27 1001 7 273
1998 SI WA 16:00:00 TS -15.48 118.63 35 1000 bom 433 433 P_____O_____P_ SH221998 -15.64 118.40 45 0 -15.40 118.60 30 35 1000 3.00 214 1012 -15.41 118.88 TC 28 1000 8 274
1998 SI WA 18:00:00 TS -15.47 118.36 452 452 O_____P_____O_ jtwc_sh SH221998 -15.60 118.20 45 0 -15.40 118.28 30 35 1000 214 1012 -15.40 118.60 TC 30 1000 8 273
1998 SI WA 21:00:00 TS -15.45 117.92 501 501 P_____P_____P_ SH221998 -15.56 117.87 47 0 -15.40 117.77 30 35 1000 214 1012 -15.40 118.11 TC 30 1000 9 272
1998 SI WA 22:00:00 TS -15.45 117.76 35 1000 bom 515 525 P_____O_____P_ SH221998 -15.54 117.75 48 0 -15.40 117.60 30 35 1000 3.00 214 1012 -15.40 117.94 TC 30 1000 9 273
1998 SI WA 1998-02-11 00:00:00 TS -15.43 117.47 544 544 O_____P_____O_ jtwc_sh SH221998 -15.50 117.50 50 0 -15.40 117.30 30 35 1000 214 1012 -15.40 117.60 TC 30 1000 9 273
1998 SI WA 03:00:00 TS -15.40 117.03 570 570 P_____P_____P_ SH221998 -15.41 117.09 50 0 -15.40 116.85 30 35 1000 214 1012 -15.40 117.15 TC 30 1000 9 274
1998 SI WA 04:00:00 TS -15.39 116.88 35 1000 bom 573 573 P_____O_____P_ SH221998 -15.38 116.93 50 0 -15.40 116.70 30 35 1000 3.00 214 1012 -15.40 117.00 TC 30 1000 9 274
1998 SI WA 06:00:00 TS -15.37 116.56 581 581 O_____P_____O_ jtwc_sh SH221998 -15.30 116.60 50 0 -15.41 116.38 30 36 998 214 1012 -15.40 116.70 TC 30 1000 10 275
1998 SI WA 09:00:00 TS -15.32 116.04 597 597 P_____P_____P_ SH221998 -15.14 116.02 50 0 -15.41 115.88 30 39 995 214 1012 -15.41 116.22 TC 35 997 10 276
1998 SI WA 10:00:00 TS -15.30 115.85 40 995 bom 599 600 P_____O_____P_ SH221998 -15.09 115.82 50 0 -15.40 115.70 30 40 995 3.00 214 1012 -15.42 116.05 TC 36 996 11 278
1998 SI WA 12:00:00 TS -15.25 115.48 617 617 O_____P_____O_ jtwc_sh SH221998 -15.00 115.40 50 0 -15.35 115.34 30 40 993 214 1012 -15.40 115.70 TC 40 995 11 279
1998 SI WA 15:00:00 TS -15.16 114.91 633 633 P_____P_____P_ SH221998 -14.93 114.79 50 0 -15.24 114.78 30 40 990 214 1012 -15.31 115.15 TC 42 992 11 279
1998 SI WA 16:00:00 TS -15.13 114.72 40 990 bom 650 650 P_____O_____P_ SH221998 -14.91 114.58 50 0 -15.20 114.60 30 40 990 3.00 214 1012 -15.28 114.96 TC 43 991 11 279
1998 SI WA 18:00:00 TS -15.07 114.35 661 661 O_____P_____O_ jtwc_sh SH221998 -14.90 114.20 50 0 -15.12 114.26 30 44 986 214 1012 -15.20 114.60 TC 45 990 10 279
1998 SI WA 21:00:00 TS -14.99 113.85 697 697 P_____P_____P_ SH221998 -14.88 113.68 52 0 -15.02 113.76 30 52 981 214 1012 -15.08 114.09 TC 52 985 10 279
1998 SI WA 22:00:00 TS -14.97 113.68 55 980 bom 701 701 P_____O_____P_ SH221998 -14.88 113.52 53 0 -15.00 113.60 30 55 980 4.00 214 1012 -15.04 113.93 TC 55 983 10 273
1998 SI WA 1998-02-12 00:00:00 TS -14.97 113.35 706 706 O_____P_____O_ jtwc_sh SH221998 -14.90 113.20 55 0 -15.00 113.26 30 56 978 214 1012 -15.00 113.60 TC 60 980 10 267
1998 SI WA 03:00:00 TS -15.01 112.85 721 721 P_____P_____P_ SH221998 -14.96 112.69 57 0 -15.06 112.76 30 59 975 214 1012 -15.01 113.09 TC 65 977 10 263
1998 SI WA 04:00:00 TS -15.04 112.68 60 975 bom 724 724 P_____O_____P_ SH221998 -15.00 112.53 58 0 -15.10 112.60 30 60 975 4.00 214 1012 -15.03 112.93 TC 66 976 10 257
1998 SI WA 06:00:00 TS -15.12 112.37 743 743 O_____P_____O_ jtwc_sh SH221998 -15.10 112.20 60 0 -15.17 112.30 30 63 973 214 1012 -15.10 112.60 TC 70 975 9 252
1998 SI WA 09:00:00 TS -15.28 111.92 770 763 P_____P_____P_ SH221998 -15.31 111.76 65 1 -15.33 111.86 30 68 970 214 1012 -15.21 112.16 TC 72 972 9 248
1998 SI WA 10:00:00 TS -15.36 111.77 70 970 bom 763 759 P_____O_____P_ SH221998 -15.40 111.61 66 1 -15.40 111.70 40 70 970 4.50 214 1012 -15.27 112.01 TC 73 971 10 242
1998 SI WA 12:00:00 TS -15.53 111.45 762 747 O_____P_____O_ jtwc_sh SH221998 -15.60 111.30 70 1 -15.58 111.36 40 73 970 214 1012 -15.40 111.70 TC 75 970 12 239
1998 SI WA 15:00:00 TS -15.84 110.92 756 745 P_____P_____P_ SH221998 -15.95 110.78 75 1 -15.90 110.80 40 78 970 214 1012 -15.68 111.18 TC 75 970 12 239
1998 SI WA 16:00:00 TS -15.95 110.73 80 970 bom 745 745 P_____O_____P_ SH221998 -16.07 110.59 76 1 -16.00 110.60 40 80 970 5.00 214 1012 -15.79 110.99 TC 75 970 13 241
1998 SI WA 18:00:00 TS -16.16 110.33 746 746 O_____P_____O_ jtwc_sh SH221998 -16.30 110.20 80 1 -16.17 110.18 40 81 971 214 1012 -16.00 110.60 TC 75 970 13 246
1998 SI WA 21:00:00 TS -16.41 109.68 763 760 P_____P_____P_ SH221998 -16.56 109.56 85 2 -16.41 109.52 40 84 974 214 1012 -16.25 109.96 TC 72 972 13 248
1998 SI WA 22:00:00 TS -16.49 109.46 85 975 bom 766 771 P_____O_____P_ SH221998 -16.64 109.34 86 2 -16.50 109.30 40 85 975 5.00 214 1012 -16.33 109.74 TC 71 973 13 247
1998 SI WA 1998-02-13 00:00:00 TS -16.67 109.03 783 783 O_____P_____O_ jtwc_sh SH221998 -16.80 108.90 90 2 -16.70 108.90 40 81 976 214 1012 -16.50 109.30 TC 70 975 13 245
1998 SI WA 03:00:00 TS -16.96 108.42 803 803 P_____P_____P_ SH221998 -17.06 108.25 90 2 -17.01 108.30 40 76 979 214 1012 -16.81 108.70 TC 65 977 13 244
1998 SI WA 04:00:00 TS -17.05 108.21 75 980 bom 810 810 P_____O_____P_ SH221998 -17.15 108.03 90 2 -17.10 108.10 40 75 980 4.50 214 1012 -16.91 108.50 TC 63 978 13 247
1998 SI WA 06:00:00 TS -17.22 107.79 835 835 O_____P_____O_ jtwc_sh SH221998 -17.30 107.60 90 2 -17.25 107.68 40 70 980 214 1012 -17.10 108.10 TC 60 980 13 250
1998 SI WA 09:00:00 TS -17.41 107.15 880 880 P_____P_____P_ SH221998 -17.47 106.96 90 2 -17.44 107.02 40 62 980 214 1012 -17.32 107.46 TC 60 980 13 253
1998 SI WA 10:00:00 TS -17.47 106.93 60 980 bom 891 891 P_____O_____P_ SH221998 -17.52 106.74 90 2 -17.50 106.80 30 60 980 4.00 214 1012 -17.39 107.25 TC 60 980 13 256
1998 SI WA 12:00:00 TS -17.57 106.48 920 920 O_____P_____O_ jtwc_sh SH221998 -17.60 106.30 90 2 -17.61 106.34 30 58 980 214 1012 -17.50 106.80 TC 60 980 13 258
1998 SI WA 15:00:00 TS -17.71 105.78 977 977 P_____P_____P_ SH221998 -17.71 105.60 87 2 -17.75 105.64 30 55 980 214 1012 -17.66 106.11 TC 60 980 14 259
1998 SI WA 16:00:00 TS -17.75 105.55 55 980 bom 1005 999 P_____O_____P_ SH221998 -17.74 105.36 86 2 -17.80 105.40 30 55 980 4.00 214 1012 -17.71 105.87 TC 60 980 14 259
1998 SI WA 18:00:00 TS -17.83 105.08 1036 1036 O_____P_____O_ jtwc_sh SH221998 -17.80 104.90 85 2 -17.89 104.94 30 53 981 214 1012 -17.80 105.40 TC 60 980 13 259
1998 SI WA 21:00:00 TS -17.96 104.41 1088 1088 P_____P_____P_ SH221998 -17.91 104.27 77 1 -18.04 104.24 30 50 984 214 1013 -17.94 104.71 TC 57 982 13 258
1998 SI WA 22:00:00 TS -18.01 104.18 50 985 bom 1106 1115 P_____O_____P_ SH221998 -17.94 104.06 74 1 -18.10 104.00 30 50 985 3.50 214 1014 -17.99 104.48 TC 56 983 14 258
1998 SI WA 1998-02-14 00:00:00 TS -18.11 103.70 1147 1147 O_____P_____O_ jtwc_sh SH221998 -18.00 103.60 70 1 -18.24 103.49 30 50 985 214 1014 -18.10 104.00 TC 55 985 15 258
1998 SI WA 03:00:00 TS -18.26 102.90 1213 1213 P_____P_____P_ SH221998 -18.03 102.79 65 1 -18.44 102.68 30 50 985 214 1014 -18.31 103.23 TC 55 985 16 259
1998 SI WA 04:00:00 TS -18.31 102.62 50 985 bom 1242 1242 P_____O_____P_ SH221998 -18.05 102.50 63 0 -18.50 102.40 30 50 985 3.50 214 1014 -18.38 102.96 TC 55 985 17 261
1998 SI WA 06:00:00 TS -18.39 102.04 1295 1295 O_____P_____O_ jtwc_sh SH221998 -18.10 101.90 60 0 -18.58 101.82 30 46 986 214 1014 -18.50 102.40 TC 55 985 17 262
1998 SI WA 09:00:00 TS -18.51 101.14 1368 1368 P_____P_____P_ SH221998 -18.27 101.01 57 0 -18.67 100.91 30 41 989 214 1014 -18.61 101.51 TC 50 987 17 262
1998 SI WA 10:00:00 TS -18.56 100.84 40 990 bom 1392 1392 P_____O_____P_ SH221998 -18.34 100.71 56 0 -18.70 100.60 30 40 990 3.00 214 1014 -18.64 101.21 TC 48 988 18 260
1998 SI WA 12:00:00 TS -18.66 100.23 1431 1431 O_____P_____O_ jtwc_sh SH221998 -18.50 100.10 55 0 -18.78 100.00 30 38 991 214 1014 -18.70 100.60 TC 45 990 18 259
1998 SI WA 15:00:00 TS -18.83 99.32 1487 1487 P_____P_____P_ SH221998 -18.73 99.16 55 0 -18.94 99.10 30 35 994 214 1014 -18.83 99.70 TC 42 992 18 258
1998 SI WA 16:00:00 TS -18.90 99.01 35 995 bom 1511 1511 P_____O_____P_ SH221998 -18.82 98.84 55 0 -19.00 98.80 30 35 995 3.00 214 1014 -18.88 99.40 TC 41 993 18 256
1998 SI WA 18:00:00 TS -19.05 98.40 1561 1561 O_____P_____O_ jtwc_sh SH221998 -19.00 98.20 55 0 -19.16 98.19 30 31 996 214 1014 -19.00 98.80 TC 40 995 18 253
1998 SI WA 21:00:00 TS -19.33 97.48 1628 1628 P_____P_____P_ SH221998 -19.31 97.25 50 0 -19.42 97.29 30 26 999 214 1014 -19.25 97.89 TC 35 997 18 252
1998 SI WA 22:00:00 TS -19.42 97.18 25 1000 bom 1654 1660 P_____O_____P_ SH221998 -19.42 96.93 48 0 -19.50 97.00 20 25 1000 2.00 214 1014 -19.34 97.59 TC 33 998 18 254
1998 SI WA 1998-02-15 00:00:00 TS -19.57 96.58 1707 1707 O_____P_____O_ jtwc_sh SH221998 -19.60 96.30 45 0 -19.61 96.43 20 23 1001 214 1014 -19.50 97.00 TC 30 1000 17 258
1998 SI WA 03:00:00 TS -19.72 95.68 1771 1771 P_____P_____P_ SH221998 -19.77 95.31 42 0 -19.75 95.59 20 20 1004 214 1014 -19.66 96.15 TC 25 1002 17 260
1998 SI WA 04:00:00 TS -19.77 95.39 20 1005 bom 1799 1805 P_____O_____P_ SH221998 -19.81 94.99 41 0 -19.80 95.30 20 20 1005 1.00 214 1014 -19.70 95.87 TC 23 1003 17 260
1998 SI WA 06:00:00 TS -19.87 94.80 1847 1847 O_____P_____O_ jtwc_sh SH221998 -19.90 94.40 40 0 -19.92 94.69 20 20 1005 214 1014 -19.80 95.30 TC 20 1005 17 258
1998 SI WA 09:00:00 TS -20.06 93.95 1924 1924 P_____P_____P_ SH221998 -20.08 93.67 40 0 -20.12 93.79 20 20 1005 214 1014 -19.98 94.38 TC 20 1005 16 256
1998 SI WA 10:00:00 TS -20.14 93.68 20 1005 bom 1938 1945 P_____O_____P_ SH221998 -20.15 93.45 40 0 -20.20 93.50 20 20 1005 1.00 214 1014 -20.05 94.08 TC 20 1005 16 253
1998 SI WA 12:00:00 TS -20.29 93.16 1989 1989 O_____P_____O_ jtwc_sh SH221998 -20.30 93.00 40 0 -20.36 92.97 20 20 1006 214 1014 -20.20 93.50 TC 20 1005 15 251
1998 SI WA 15:00:00 TS -20.54 92.40 2063 2063 P_____P_____P_ SH221998 -20.56 92.26 40 0 -20.62 92.24 20 20 1009 214 1014 -20.45 92.72 TC 17 1007 15 250
1998 SI WA 16:00:00 TS -20.63 92.16 20 1010 bom 2085 2092 P_____O_____P_ SH221998 -20.65 92.01 40 0 -20.70 92.00 20 20 1010 1.00 214 1014 -20.54 92.48 TC 16 1008 14 251
1998 SI WA 18:00:00 TS -20.78 91.67 2137 2137 O_____P_____O_ jtwc_sh SH221998 -20.80 91.50 40 0 -20.84 91.52 20 20 1010 214 1014 -20.70 92.00 TC 15 1010 14 254
1998 SI WA 21:00:00 TS -20.95 90.96 2197 2197 P_____P_____P_ SH221998 -20.91 90.76 40 0 -21.03 90.82 20 20 1010 214 1014 -20.90 91.28 TC 15 1010 14 256
1998 SI WA 22:00:00 TS -21.00 90.72 20 1010 bom 2227 2227 P_____O_____P_ SH221998 -20.94 90.51 40 0 -21.10 90.60 20 20 1010 1.00 214 1014 -20.96 91.05 TC 15 1010 14 255
1998 SI WA 1998-02-16 00:00:00 TS -21.13 90.26 2265 2265 O_____P_____O_ jtwc_sh SH221998 -21.00 90.00 40 0 -21.29 90.18 20 20 1010 214 1014 -21.10 90.60 TC 15 1010 14 252
1998 SI MM 03:00:00 TS -21.36 89.57 2341 2341 P_____P_____P_ SH221998 -21.15 89.21 37 0 -21.54 89.53 20 20 1010 214 1014 -21.38 89.97 TC 15 1010 14 251
1998 SI MM 04:00:00 TS -21.42 89.33 2365 2365 P_____O_____P_ SH221998 -21.20 88.94 36 0 -21.60 89.30 20 20 1010 1.00 214 1014 -21.47 89.75 TC 15 1010 14 257
1998 SI MM 06:00:00 TS -21.52 88.83 2411 2411 O_____P_____O_ jtwc_sh SH221998 -21.30 88.40 35 0 -21.65 88.80 20 20 1010 205 1014 -21.60 89.30 TC 15 1010 14 263
1998 SI MM 09:00:00 TS -21.57 88.05 2482 2482 P_____P_____P_ SH221998 -21.42 87.61 35 0 -21.62 87.99 20 20 1010 191 1014 -21.65 88.54 TC 15 1010 15 267
1998 SI MM 10:00:00 TS -21.57 87.77 2498 2506 P_____O_____P_ SH221998 -21.45 87.35 35 0 -21.60 87.70 20 20 1010 1.00 187 1014 -21.64 88.27 TC 15 1010 16 271
1998 SI MM 12:00:00 TS -21.55 87.21 2539 2539 O_____P_____O_ jtwc_sh SH221998 -21.50 86.80 35 0 -21.54 87.12 20 20 1010 178 1014 -21.60 87.70 TC 15 1010 16 273
1998 SI MM 15:00:00 TS -21.48 86.31 2603 2603 P_____P_____P_ SH221998 -21.51 85.91 35 0 -21.43 86.21 20 20 1010 164 1014 -21.51 86.81 TC 15 1010 17 274
1998 SI MM 16:00:00 TS -21.46 86.00 2620 2617 P_____O_____P_ SH221998 -21.51 85.60 35 0 -21.40 85.90 20 20 1010 1.00 160 1014 -21.47 86.51 TC 15 1010 17 274
1998 SI MM 18:00:00 TS -21.42 85.40 2647 2647 O_____P_____O_ jtwc_sh SH221998 -21.50 85.00 35 0 -21.36 85.31 20 20 1010 160 1014 -21.40 85.90 TC 15 1010 17 273
1998 SI MM 21:00:00 TS -21.38 84.52 2702 2702 P_____P_____P_ SH221998 -21.48 84.14 35 0 -21.32 84.41 20 20 1010 160 1014 -21.35 85.01 TC 15 1010 16 273
1998 SI MM 22:00:00 TS -21.37 84.22 2721 2690 P_____O_____P_ SH221998 -21.48 83.86 35 0 -21.30 84.10 20 20 1010 1.00 160 1014 -21.34 84.71 TC 15 1010 16 272
1998 SI MM 1998-02-17 00:00:00 TS -21.36 83.64 2680 2597 O_____P_____O_ jtwc_sh SH221998 -21.50 83.30 35 0 -21.25 83.48 20 20 1010 160 1014 -21.30 84.10 TC 15 1010 17 270
1998 SI MM 03:00:00 TS -21.37 82.70 2587 2556 P_____P_____P_ SH221998 -21.59 82.45 35 0 -21.14 82.52 20 20 1010 160 1014 -21.21 83.16 TC 15 1010 18 267
1998 SI MM 04:00:00 TS -21.43 82.36 2556 2493 P_____O_____P_ SH221998 -21.63 82.17 35 0 -21.10 82.20 20 20 1010 1.00 160 1014 -21.18 82.84 TC 15 1010 19 257
1998 SI MM 06:00:00 TS -21.58 81.72 2483 2390 O___________O_ jtwc_sh SH221998 -21.70 81.60 35 0 20 -21.10 82.20 TC 15 1010 18 258
1998 SI MM 09:00:00 NR -21.73 80.76 2390 2297 P_____________ SH221998 -21.73 80.76 35 0 20 TC 17 263
1998 SI MM 12:00:00 NR -21.80 79.90 2297 2204 O_____________ jtwc_sh SH221998 -21.80 79.90 35 0 17 262
1998 SI MM 15:00:00 NR -21.96 78.99 2204 2112 P_____________ SH221998 -21.96 78.99 35 0 17 257
1998 SI MM 18:00:00 NR -22.20 78.10 2112 2031 O_____________ jtwc_sh SH221998 -22.20 78.10 35 0 17 253
1998 SI MM 21:00:00 NR -22.45 77.28 2031 1962 P_____________ SH221998 -22.45 77.28 35 0 15 247
1998 SI MM 1998-02-18 00:00:00 NR -22.80 76.60 1962 1915 O_____________ jtwc_sh SH221998 -22.80 76.60 35 0 13 235
1998 SI MM 03:00:00 NR -23.23 76.10 1915 1882 P_____________ SH221998 -23.23 76.10 35 0 13 220
1998 SI MM 06:00:00 NR -23.80 75.70 1883 1855 O_____________ jtwc_sh SH221998 -23.80 75.70 35 0 15 211
1998 SI MM 09:00:00 NR -24.49 75.26 1857 1834 P_____________ SH221998 -24.49 75.26 35 0 17 206
1998 SI MM 12:00:00 NR -25.30 74.90 1837 1832 O_____________ jtwc_sh SH221998 -25.30 74.90 35 0 18 198
1998 SI MM 15:00:00 NR -26.18 74.66 1845 1839 P_____________ SH221998 -26.18 74.66 32 -1 18 191
1998 SI MM 18:00:00 NR -27.10 74.50 1858 O_____________ jtwc_sh SH221998 -27.10 74.50 30 -1 19 189